Barhom II — 5IM534 — position and weather

sailwx.info

Track history (hours):
 
Tides and Currents Weather Stations Pressure Air Temp Water Temp Dewpoint Dewpoint Depression Visibility Wind Speed Wind Dir Waves Ship Positions

Barhom II

Last reported at 2015-Aug-01 08:33 UTC. Time now 2015-Aug-01 13:55 UTC.
Position N 39°48' E 003°52'.

Length 83 m; draft 4.4 m.

Type: Cargo ship. MMSI: 677043400.

Date/timePositionNaut miles runAvg speedWind from/ knotsBaromVisibWave heightAir tempDewpointWater temp
2015-Aug-01 08:33N 39°48' E 003°52'10 9.4
2015-Aug-01 07:31N 39°53' E 003°41'8 8.5
2015-Aug-01 06:33N 39°58' E 003°33'21 9.0
2015-Aug-01 04:14N 40°08' E 003°09'7 9.6
2015-Aug-01 03:33N 40°11' E 003°01'10 9.8
2015-Aug-01 02:33N 40°16' E 002°50'1010.3
2015-Aug-01 01:33N 40°21' E 002°39'10 9.8
2015-Aug-01 00:33N 40°27' E 002°28'9 9.4
2015-Jul-31 23:33N 40°33' E 002°19'10 9.8
2015-Jul-31 22:33N 40°39' E 002°08'1010.1
2015-Jul-31 21:33N 40°44' E 001°57'1010.0
2015-Jul-31 20:33N 40°49' E 001°45'1010.2
2015-Jul-31 19:33N 40°54' E 001°34'54 1.2
2015-Jul-29 23:22N 40°25' E 002°34'2010.8
2015-Jul-29 21:31N 40°15' E 002°57'4511.4
2015-Jul-29 17:33N 39°50' E 003°45'364 9.6
2015-Jul-28 03:32N 37°31' E 010°56'20 9.0
2015-Jul-28 01:21N 37°24' E 011°19'8 9.8
2015-Jul-28 00:33N 37°17' E 011°24'9 8.7
2015-Jul-27 23:33N 37°10' E 011°31'9 9.5
2015-Jul-27 22:34N 37°02' E 011°37'12 9.5
2015-Jul-27 21:15N 36°52' E 011°46'6 9.4
2015-Jul-27 20:33N 36°47' E 011°50'9 9.3
2015-Jul-27 19:33N 36°39' E 011°56'11 9.6
2015-Jul-27 18:27N 36°29' E 012°03'9 9.7
2015-Jul-27 17:34N 36°22' E 012°09'10 9.7
2015-Jul-27 16:33N 36°15' E 012°16'1010.0
2015-Jul-27 15:33N 36°06' E 012°23'40 9.8
2015-Jul-27 11:30N 35°32' E 012°48'9 9.5
2015-Jul-27 10:34N 35°25' E 012°54'10 9.6
2015-Jul-27 09:33N 35°17' E 013°01'10 9.7
2015-Jul-27 08:34N 35°09' E 013°08'10 9.7
2015-Jul-27 07:33N 35°01' E 013°14'21 9.9
2015-Jul-27 05:27N 34°44' E 013°29'9 9.9
2015-Jul-27 04:33N 34°37' E 013°35'1010.1
2015-Jul-27 03:33N 34°28' E 013°42'1010.1
2015-Jul-27 02:33N 34°20' E 013°49'1110.2
2015-Jul-27 01:27N 34°11' E 013°57'1110.4
2015-Jul-27 00:24N 34°01' E 014°03'910.6
2015-Jul-26 23:34N 33°53' E 014°09'1110.6
2015-Jul-26 22:34N 33°44' E 014°15'1010.4
2015-Jul-26 21:33N 33°36' E 014°22'1010.3
2015-Jul-26 20:34N 33°27' E 014°28'1010.3
2015-Jul-26 19:33N 33°18' E 014°35'65 3.6
2015-Jul-26 01:33N 32°22' E 015°13'0 0.0
2015-Jul-26 00:33N 32°22' E 015°13'0 0.0
2015-Jul-25 22:19N 32°22' E 015°13'0 0.0
2015-Jul-25 10:32N 32°22' E 015°13'0 0.4
2015-Jul-25 09:32N 32°22' E 015°13'37 9.2
2015-Jul-25 05:33N 32°57' E 014°59'7310.3
2015-Jul-24 22:29N 33°58' E 014°12'1110.3
2015-Jul-24 21:23N 34°07' E 014°05'910.4
2015-Jul-24 20:33N 34°14' E 013°58'1010.4
2015-Jul-24 19:33N 34°23' E 013°51'1010.4
2015-Jul-24 18:33N 34°31' E 013°43'2310.3
2015-Jul-24 16:18N 34°50' E 013°27'810.4
2015-Jul-24 15:32N 34°56' E 013°21'1010.6
2015-Jul-24 14:33N 35°05' E 013°14'1110.6
2015-Jul-24 13:33N 35°13' E 013°07'9 8.8
2015-Jul-24 12:33N 35°20' E 013°00'48610.0
2015-Jul-22 12:05N 39°35' E 004°19'  
Track history (hours):
 
Tides and Currents Weather Stations Pressure Air Temp Water Temp Dewpoint Dewpoint Depression Visibility Wind Speed Wind Dir Waves Ship Positions

Barhom II

Last reported at 2015-Aug-01 08:33 UTC. Time now 2015-Aug-01 13:55 UTC.
Position N 39°48' E 003°52'.

Length 83 m; draft 4.4 m.

Type: Cargo ship. MMSI: 677043400.

Date/timePositionNaut miles runAvg speedWind from/ knotsBaromVisibWave heightAir tempDewpointWater temp
2015-Aug-01 08:33N 39°48' E 003°52'10 9.4
2015-Aug-01 07:31N 39°53' E 003°41'8 8.5
2015-Aug-01 06:33N 39°58' E 003°33'21 9.0
2015-Aug-01 04:14N 40°08' E 003°09'7 9.6
2015-Aug-01 03:33N 40°11' E 003°01'10 9.8
2015-Aug-01 02:33N 40°16' E 002°50'1010.3
2015-Aug-01 01:33N 40°21' E 002°39'10 9.8
2015-Aug-01 00:33N 40°27' E 002°28'9 9.4
2015-Jul-31 23:33N 40°33' E 002°19'10 9.8
2015-Jul-31 22:33N 40°39' E 002°08'1010.1
2015-Jul-31 21:33N 40°44' E 001°57'1010.0
2015-Jul-31 20:33N 40°49' E 001°45'1010.2
2015-Jul-31 19:33N 40°54' E 001°34'54 1.2
2015-Jul-29 23:22N 40°25' E 002°34'2010.8
2015-Jul-29 21:31N 40°15' E 002°57'4511.4
2015-Jul-29 17:33N 39°50' E 003°45'364 9.6
2015-Jul-28 03:32N 37°31' E 010°56'20 9.0
2015-Jul-28 01:21N 37°24' E 011°19'8 9.8
2015-Jul-28 00:33N 37°17' E 011°24'9 8.7
2015-Jul-27 23:33N 37°10' E 011°31'9 9.5
2015-Jul-27 22:34N 37°02' E 011°37'12 9.5
2015-Jul-27 21:15N 36°52' E 011°46'6 9.4
2015-Jul-27 20:33N 36°47' E 011°50'9 9.3
2015-Jul-27 19:33N 36°39' E 011°56'11 9.6
2015-Jul-27 18:27N 36°29' E 012°03'9 9.7
2015-Jul-27 17:34N 36°22' E 012°09'10 9.7
2015-Jul-27 16:33N 36°15' E 012°16'1010.0
2015-Jul-27 15:33N 36°06' E 012°23'40 9.8
2015-Jul-27 11:30N 35°32' E 012°48'9 9.5
2015-Jul-27 10:34N 35°25' E 012°54'10 9.6
2015-Jul-27 09:33N 35°17' E 013°01'10 9.7
2015-Jul-27 08:34N 35°09' E 013°08'10 9.7
2015-Jul-27 07:33N 35°01' E 013°14'21 9.9
2015-Jul-27 05:27N 34°44' E 013°29'9 9.9
2015-Jul-27 04:33N 34°37' E 013°35'1010.1
2015-Jul-27 03:33N 34°28' E 013°42'1010.1
2015-Jul-27 02:33N 34°20' E 013°49'1110.2
2015-Jul-27 01:27N 34°11' E 013°57'1110.4
2015-Jul-27 00:24N 34°01' E 014°03'910.6
2015-Jul-26 23:34N 33°53' E 014°09'1110.6
2015-Jul-26 22:34N 33°44' E 014°15'1010.4
2015-Jul-26 21:33N 33°36' E 014°22'1010.3
2015-Jul-26 20:34N 33°27' E 014°28'1010.3
2015-Jul-26 19:33N 33°18' E 014°35'65 3.6
2015-Jul-26 01:33N 32°22' E 015°13'0 0.0
2015-Jul-26 00:33N 32°22' E 015°13'0 0.0
2015-Jul-25 22:19N 32°22' E 015°13'0 0.0
2015-Jul-25 10:32N 32°22' E 015°13'0 0.4
2015-Jul-25 09:32N 32°22' E 015°13'37 9.2
2015-Jul-25 05:33N 32°57' E 014°59'7310.3
2015-Jul-24 22:29N 33°58' E 014°12'1110.3
2015-Jul-24 21:23N 34°07' E 014°05'910.4
2015-Jul-24 20:33N 34°14' E 013°58'1010.4
2015-Jul-24 19:33N 34°23' E 013°51'1010.4
2015-Jul-24 18:33N 34°31' E 013°43'2310.3
2015-Jul-24 16:18N 34°50' E 013°27'810.4
2015-Jul-24 15:32N 34°56' E 013°21'1010.6
2015-Jul-24 14:33N 35°05' E 013°14'1110.6
2015-Jul-24 13:33N 35°13' E 013°07'9 8.8
2015-Jul-24 12:33N 35°20' E 013°00'48610.0
2015-Jul-22 12:05N 39°35' E 004°19'  

Dump ship's entire track history